createdAt,value
2022-12-27T00:00:14.456Z,1.23
2022-12-27T00:02:40.975Z,1.20
2022-12-27T00:05:08.940Z,1.75
2022-12-27T00:07:35.269Z,1.33
2022-12-27T00:10:02.080Z,1.42
2022-12-27T00:12:28.512Z,1.40
2022-12-27T00:14:54.866Z,1.52
2022-12-27T00:17:21.235Z,1.30
2022-12-27T00:19:47.649Z,0.85
2022-12-27T00:22:13.996Z,1.00
2022-12-27T00:24:40.589Z,0.80
2022-12-27T00:27:06.974Z,1.50
2022-12-27T00:29:33.361Z,1.25
2022-12-27T00:31:59.818Z,0.90
2022-12-27T00:34:26.296Z,0.80
2022-12-27T00:36:52.625Z,0.93
2022-12-27T00:39:19.041Z,0.95
2022-12-27T00:41:45.398Z,1.15
2022-12-27T00:44:11.775Z,1.38
2022-12-27T00:46:38.117Z,1.77
2022-12-27T00:49:04.507Z,1.00
2022-12-27T00:51:30.865Z,1.27
2022-12-27T00:53:57.450Z,1.00
2022-12-27T00:56:25.174Z,1.08
2022-12-27T00:58:55.405Z,1.42
2022-12-27T01:01:22.603Z,0.88
2022-12-27T01:03:49.145Z,1.10
2022-12-27T01:06:16.937Z,1.15
2022-12-27T01:08:43.568Z,1.08
2022-12-27T01:11:11.122Z,0.85
2022-12-27T01:13:37.892Z,1.15
2022-12-27T01:16:11.577Z,1.00
2022-12-27T01:18:38.320Z,1.50
2022-12-27T01:21:05.608Z,1.17
2022-12-27T01:23:32.378Z,1.73
2022-12-27T01:25:59.534Z,1.38
2022-12-27T01:28:25.906Z,1.60
2022-12-27T01:30:52.231Z,1.25
2022-12-27T01:33:18.554Z,1.80
2022-12-27T01:35:44.892Z,1.35
2022-12-27T01:38:11.327Z,1.50
2022-12-27T01:40:37.746Z,1.35
2022-12-27T01:43:04.187Z,1.67
2022-12-27T01:45:34.988Z,1.08
2022-12-27T01:48:01.394Z,1.10
2022-12-27T01:50:31.103Z,1.10
2022-12-27T01:53:15.615Z,1.27
2022-12-27T01:55:45.738Z,1.15
2022-12-27T01:58:24.269Z,1.20
2022-12-27T02:00:51.209Z,1.20
2022-12-27T02:03:29.129Z,1.13
2022-12-27T02:05:56.666Z,1.13
2022-12-27T02:08:29.190Z,1.20
2022-12-27T02:10:55.901Z,1.10
2022-12-27T02:13:22.321Z,1.55
2022-12-27T02:15:48.733Z,1.25
2022-12-27T02:18:15.411Z,1.35
2022-12-27T02:21:05.184Z,1.33
2022-12-27T02:23:50.219Z,1.67
2022-12-27T02:26:35.271Z,1.20
2022-12-27T02:29:07.323Z,0.82
2022-12-27T02:31:33.604Z,1.10
2022-12-27T02:34:00.450Z,0.80
2022-12-27T02:36:29.744Z,1.52
2022-12-27T02:38:57.400Z,1.35
2022-12-27T02:41:43.242Z,1.02
2022-12-27T02:44:28.348Z,1.10
2022-12-27T02:47:13.522Z,1.00
2022-12-27T02:50:00.155Z,1.30
2022-12-27T02:53:02.321Z,1.02
2022-12-27T02:56:07.119Z,1.05
2022-12-27T02:58:39.707Z,1.25
2022-12-27T03:01:37.356Z,1.33
2022-12-27T03:04:17.653Z,1.23
2022-12-27T03:07:00.203Z,1.00
2022-12-27T03:09:48.409Z,1.13
2022-12-27T03:12:47.171Z,1.20
2022-12-27T03:15:49.548Z,1.63
2022-12-27T03:18:37.897Z,0.80
2022-12-27T03:21:24.681Z,1.13
2022-12-27T03:24:11.944Z,0.70
2022-12-27T03:26:39.586Z,1.00
2022-12-27T03:29:27.188Z,1.15
2022-12-27T03:32:15.457Z,1.02
2022-12-27T03:34:47.396Z,1.50
2022-12-27T03:37:34.366Z,0.98
2022-12-27T03:40:18.914Z,1.20
2022-12-27T03:43:08.376Z,0.82
2022-12-27T03:46:11.678Z,0.77
2022-12-27T03:48:50.208Z,1.20
2022-12-27T03:51:21.229Z,1.15
2022-12-27T03:53:48.703Z,1.00
2022-12-27T03:56:15.048Z,1.00
2022-12-27T03:58:41.453Z,1.10
2022-12-27T04:01:07.795Z,1.08
2022-12-27T04:03:34.236Z,0.90
2022-12-27T04:06:00.649Z,0.80
2022-12-27T04:08:45.805Z,0.93
2022-12-27T04:11:31.081Z,0.95
2022-12-27T04:14:16.181Z,0.63
2022-12-27T04:17:01.399Z,1.63
2022-12-27T04:19:46.495Z,1.65
2022-12-27T04:22:31.389Z,1.33
2022-12-27T04:25:16.147Z,0.90
2022-12-27T04:28:01.179Z,3.05
2022-12-27T04:30:46.335Z,1.05
2022-12-27T04:33:31.514Z,1.00
2022-12-27T04:36:02.744Z,0.70
2022-12-27T04:38:32.219Z,1.30
2022-12-27T04:41:17.354Z,1.35
2022-12-27T04:44:02.483Z,0.80
2022-12-27T04:46:47.677Z,0.60
2022-12-27T04:49:43.604Z,0.70
2022-12-27T04:52:36.116Z,0.70
2022-12-27T04:55:18.028Z,0.88
2022-12-27T04:57:44.455Z,1.20
2022-12-27T05:00:29.912Z,1.33
2022-12-27T05:02:56.863Z,0.57
2022-12-27T05:05:23.758Z,1.38
2022-12-27T05:08:09.165Z,1.13
2022-12-27T05:10:54.408Z,0.70
2022-12-27T05:13:39.121Z,0.93
2022-12-27T05:16:05.708Z,0.88
2022-12-27T05:18:32.078Z,1.27
2022-12-27T05:21:01.856Z,0.75
2022-12-27T05:23:46.620Z,0.90
2022-12-27T05:26:23.062Z,1.08
2022-12-27T05:28:50.553Z,0.95
2022-12-27T05:31:16.961Z,1.20
2022-12-27T05:33:43.413Z,0.98
2022-12-27T05:36:10.051Z,1.20
2022-12-27T05:38:36.496Z,1.00
2022-12-27T05:41:03.083Z,0.90
2022-12-27T05:43:29.843Z,0.63
2022-12-27T05:45:56.181Z,1.08
2022-12-27T05:48:22.741Z,1.00
2022-12-27T05:50:49.117Z,1.00
2022-12-27T05:53:15.502Z,1.52
2022-12-27T05:55:41.867Z,1.85
2022-12-27T05:58:08.241Z,1.23
2022-12-27T06:00:34.686Z,1.23
2022-12-27T06:03:02.132Z,1.15
2022-12-27T06:05:28.517Z,1.10
2022-12-27T06:07:54.899Z,0.75
2022-12-27T06:10:21.226Z,0.90
2022-12-27T06:12:47.567Z,1.02
2022-12-27T06:15:13.899Z,0.80
2022-12-27T06:17:40.225Z,2.03
2022-12-27T06:20:06.828Z,0.73
2022-12-27T06:22:33.189Z,1.33
2022-12-27T06:24:59.729Z,1.02
2022-12-27T06:27:26.195Z,1.02
2022-12-27T06:29:52.529Z,1.10
2022-12-27T06:32:18.976Z,0.80
2022-12-27T06:34:45.493Z,0.70
2022-12-27T06:37:12.299Z,1.27
2022-12-27T06:39:38.730Z,0.85
2022-12-27T06:42:05.071Z,0.85
2022-12-27T06:44:31.402Z,0.90
2022-12-27T06:46:58.868Z,0.90
2022-12-27T06:49:25.876Z,1.15
2022-12-27T06:51:59.080Z,1.60
2022-12-27T06:54:26.022Z,0.70
2022-12-27T06:56:52.388Z,0.98
2022-12-27T06:59:18.705Z,1.02
2022-12-27T07:01:45.141Z,1.08
2022-12-27T07:04:11.567Z,1.17
2022-12-27T07:06:38.024Z,1.13
2022-12-27T07:09:04.426Z,1.10
2022-12-27T07:11:32.167Z,0.90
2022-12-27T07:13:58.531Z,1.10
2022-12-27T07:16:26.338Z,1.88
2022-12-27T07:18:53.023Z,0.95
2022-12-27T07:21:20.675Z,1.10
2022-12-27T07:23:47.240Z,1.23
2022-12-27T07:26:18.350Z,0.93
2022-12-27T07:28:44.851Z,1.10
2022-12-27T07:31:21.074Z,1.30
2022-12-27T07:33:47.509Z,0.70
2022-12-27T07:36:15.060Z,0.70
2022-12-27T07:38:41.405Z,1.20
2022-12-27T07:41:07.793Z,0.88
2022-12-27T07:43:34.487Z,1.42
2022-12-27T07:46:08.549Z,0.90
2022-12-27T07:48:35.226Z,1.38
2022-12-27T07:51:01.806Z,1.35
2022-12-27T07:53:28.168Z,1.33
2022-12-27T07:55:54.616Z,1.65
2022-12-27T07:58:20.948Z,1.23
2022-12-27T08:00:48.179Z,1.20
2022-12-27T08:03:14.590Z,1.20
2022-12-27T08:05:52.649Z,1.33
2022-12-27T08:08:21.153Z,1.10
2022-12-27T08:10:47.481Z,1.85
2022-12-27T08:13:13.861Z,1.50
2022-12-27T08:15:41.224Z,1.65
2022-12-27T08:18:07.603Z,1.10
2022-12-27T08:20:34.151Z,1.50
2022-12-27T08:23:00.507Z,1.77
2022-12-27T08:25:27.710Z,1.27
2022-12-27T08:28:01.989Z,1.60
2022-12-27T08:30:28.535Z,1.73
2022-12-27T08:32:55.053Z,1.83
2022-12-27T08:35:50.835Z,2.10
2022-12-27T08:40:34.656Z,1.85
2022-12-27T08:43:01.064Z,2.15
2022-12-27T08:45:27.473Z,1.77
2022-12-27T08:47:58.939Z,1.40
2022-12-27T08:50:25.630Z,1.83
2022-12-27T08:52:51.997Z,1.40
2022-12-27T08:55:18.359Z,1.20
2022-12-27T08:57:44.763Z,1.85
2022-12-27T09:00:11.521Z,1.45
2022-12-27T09:02:38.030Z,1.70
2022-12-27T09:05:04.683Z,1.60
2022-12-27T09:07:31.594Z,2.08
2022-12-27T09:09:58.032Z,1.58
2022-12-27T09:12:24.387Z,1.30
2022-12-27T09:14:50.753Z,2.50
2022-12-27T09:17:17.143Z,1.90
2022-12-27T09:19:43.564Z,1.45
2022-12-27T09:22:09.943Z,1.55
2022-12-27T09:24:36.241Z,1.48
2022-12-27T09:27:02.574Z,1.40
2022-12-27T09:29:28.924Z,2.03
2022-12-27T09:31:55.311Z,1.50
2022-12-27T09:34:21.635Z,1.60
2022-12-27T09:36:47.984Z,1.73
2022-12-27T09:39:15.432Z,1.80
2022-12-27T09:44:57.065Z,1.73
2022-12-27T09:47:26.546Z,1.77
2022-12-27T09:49:55.579Z,1.70
2022-12-27T09:52:32.224Z,1.50
2022-12-27T09:55:19.522Z,1.98
2022-12-27T09:57:46.475Z,2.08
2022-12-27T10:00:15.468Z,1.73
2022-12-27T10:02:44.445Z,1.77
2022-12-27T10:05:22.970Z,1.77
2022-12-27T10:07:53.432Z,1.73
2022-12-27T10:10:49.210Z,1.90
2022-12-27T10:13:33.755Z,1.45
2022-12-27T10:16:15.399Z,1.85
2022-12-27T10:19:00.692Z,1.67
2022-12-27T10:21:28.034Z,1.65
2022-12-27T10:23:56.324Z,1.70
2022-12-27T10:26:22.789Z,1.95
2022-12-27T10:28:57.694Z,1.95
2022-12-27T10:31:24.951Z,1.70
2022-12-27T10:33:51.802Z,2.58
2022-12-27T10:36:20.213Z,1.65
2022-12-27T10:38:46.596Z,2.53
2022-12-27T10:41:36.361Z,1.63
2022-12-27T10:44:03.025Z,1.52
2022-12-27T10:46:33.088Z,1.58
2022-12-27T10:51:49.284Z,1.60
2022-12-27T10:54:28.773Z,0.95
2022-12-27T10:56:55.936Z,1.70
2022-12-27T10:59:26.212Z,1.20
2022-12-27T11:02:01.734Z,2.08
2022-12-27T11:04:30.144Z,1.50
2022-12-27T11:07:02.575Z,1.85
2022-12-27T11:09:30.701Z,1.63
2022-12-27T11:12:15.649Z,1.85
2022-12-27T11:15:11.101Z,1.80
2022-12-27T11:17:42.211Z,1.65
2022-12-27T11:20:12.214Z,1.65
2022-12-27T11:22:47.105Z,1.88
2022-12-27T11:25:14.563Z,2.20
2022-12-27T11:27:44.702Z,1.25
2022-12-27T11:30:43.323Z,1.65
2022-12-27T11:33:24.558Z,1.52
2022-12-27T11:35:52.639Z,1.60
2022-12-27T11:38:24.312Z,1.90
2022-12-27T11:41:11.026Z,2.15
2022-12-27T11:43:43.075Z,1.50
2022-12-27T11:46:15.928Z,1.90
2022-12-27T11:48:45.004Z,1.80
2022-12-27T11:51:11.309Z,1.90
2022-12-27T11:53:56.766Z,1.95
2022-12-27T11:56:26.187Z,1.83
2022-12-27T11:58:58.469Z,1.75
2022-12-27T12:01:44.036Z,1.55
2022-12-27T12:04:16.801Z,1.27
2022-12-27T12:07:02.159Z,1.55
2022-12-27T12:09:28.550Z,1.80
2022-12-27T12:12:13.837Z,2.17
2022-12-27T12:14:48.947Z,1.80
2022-12-27T12:17:38.349Z,2.08
2022-12-27T12:20:17.294Z,2.00
2022-12-27T12:23:05.745Z,1.70
2022-12-27T12:25:32.059Z,1.65
2022-12-27T12:28:47.252Z,1.40
2022-12-27T12:31:03.314Z,1.80
2022-12-27T12:33:51.082Z,2.03
2022-12-27T12:36:29.433Z,1.70
2022-12-27T12:39:01.848Z,1.63
2022-12-27T12:41:47.990Z,1.45
2022-12-27T12:44:14.461Z,1.52
2022-12-27T12:46:47.421Z,2.42
2022-12-27T12:49:32.320Z,1.63
2022-12-27T12:52:07.853Z,2.35
2022-12-27T12:54:56.962Z,1.27
2022-12-27T12:57:23.468Z,1.67
2022-12-27T12:59:49.923Z,1.60
2022-12-27T13:02:28.581Z,1.60
2022-12-27T13:04:58.168Z,1.70
2022-12-27T13:07:41.356Z,1.60
2022-12-27T13:10:07.725Z,1.45
2022-12-27T13:12:47.518Z,1.80
2022-12-27T13:15:20.945Z,1.90
2022-12-27T13:18:06.293Z,1.65
2022-12-27T13:20:51.422Z,1.97
2022-12-27T13:23:23.742Z,2.15
2022-12-27T13:26:08.329Z,1.65
2022-12-27T13:28:39.144Z,1.48
2022-12-27T13:31:05.588Z,2.22
2022-12-27T13:33:31.952Z,1.70
2022-12-27T13:36:30.827Z,2.33
2022-12-27T13:38:57.142Z,2.05
2022-12-27T13:41:35.937Z,1.40
2022-12-27T13:44:08.262Z,1.70
2022-12-27T13:46:43.508Z,2.05
2022-12-27T13:49:28.746Z,1.70
2022-12-27T13:51:58.734Z,1.25
2022-12-27T13:54:27.839Z,2.05
2022-12-27T13:57:02.721Z,1.52
2022-12-27T13:59:41.425Z,1.67
2022-12-27T14:02:08.066Z,1.52
2022-12-27T14:04:46.537Z,1.50
2022-12-27T14:07:19.849Z,1.60
2022-12-27T14:09:59.867Z,1.63
2022-12-27T14:12:46.075Z,1.58
2022-12-27T14:15:15.289Z,1.55
2022-12-27T14:17:41.618Z,1.40
2022-12-27T14:20:26.910Z,1.58
2022-12-27T14:23:15.214Z,1.90
2022-12-27T14:25:41.543Z,1.75
2022-12-27T14:28:16.921Z,1.92
2022-12-27T14:31:02.398Z,2.03
2022-12-27T14:33:42.048Z,1.70
2022-12-27T14:36:37.902Z,2.58
2022-12-27T14:39:30.477Z,2.40
2022-12-27T14:41:56.912Z,1.95
2022-12-27T14:44:52.664Z,2.33
2022-12-27T14:47:28.652Z,2.25
2022-12-27T14:49:58.028Z,2.33
2022-12-27T14:52:44.847Z,2.42
2022-12-27T14:55:33.290Z,3.22
2022-12-27T14:58:18.420Z,2.70
2022-12-27T15:01:00.254Z,2.35
2022-12-27T15:03:35.832Z,2.40
2022-12-27T15:06:12.132Z,2.92
2022-12-27T15:08:55.416Z,2.63
2022-12-27T15:11:33.107Z,2.70
2022-12-27T15:14:07.080Z,3.22
2022-12-27T15:16:41.281Z,3.13
2022-12-27T15:19:25.803Z,2.42
2022-12-27T15:21:52.165Z,2.42
2022-12-27T15:24:25.870Z,2.33
2022-12-27T15:26:57.176Z,2.60
2022-12-27T15:29:46.834Z,2.70
2022-12-27T15:32:35.744Z,2.70
2022-12-27T15:35:30.130Z,2.25
2022-12-27T15:38:02.628Z,2.78
2022-12-27T15:40:31.925Z,2.42
2022-12-27T15:43:01.401Z,2.25
2022-12-27T15:45:46.359Z,2.83
2022-12-27T15:48:15.605Z,2.33
2022-12-27T15:50:44.837Z,2.50
2022-12-27T15:53:31.776Z,2.35
2022-12-27T15:56:22.516Z,2.38
2022-12-27T15:59:07.745Z,2.88
2022-12-27T16:01:35.099Z,2.65
2022-12-27T16:04:21.594Z,2.70
2022-12-27T16:12:00.001Z,2.40
2022-12-27T16:14:30.627Z,2.13
2022-12-27T16:17:20.007Z,2.65
2022-12-27T16:19:50.699Z,3.05
2022-12-27T16:22:35.637Z,2.72
2022-12-27T16:25:15.444Z,2.20
2022-12-27T16:27:42.650Z,2.63
2022-12-27T16:30:10.043Z,2.60
2022-12-27T16:32:36.424Z,2.45
2022-12-27T16:35:14.027Z,2.67
2022-12-27T16:37:50.939Z,2.17
2022-12-27T16:40:26.448Z,2.20
2022-12-27T16:42:58.843Z,2.00
2022-12-27T16:45:25.163Z,1.95
2022-12-27T16:47:54.488Z,2.30
2022-12-27T16:50:31.361Z,2.60
2022-12-27T16:52:59.853Z,2.20
2022-12-27T16:55:47.600Z,2.17
2022-12-27T16:58:28.937Z,3.00
2022-12-27T17:00:56.729Z,2.40
2022-12-27T17:03:27.875Z,3.03
2022-12-27T17:08:41.006Z,2.40
2022-12-27T17:11:13.529Z,2.55
2022-12-27T17:13:47.842Z,2.20
2022-12-27T17:16:20.133Z,2.55
2022-12-27T17:18:54.583Z,2.13
2022-12-27T17:21:26.145Z,2.40
2022-12-27T17:23:57.522Z,2.67
2022-12-27T17:26:36.104Z,2.33
2022-12-27T17:29:14.415Z,2.08
2022-12-27T17:31:51.043Z,2.40
2022-12-27T17:34:37.813Z,2.40
2022-12-27T17:37:26.589Z,1.95
2022-12-27T17:40:02.596Z,2.50
2022-12-27T17:42:54.719Z,2.58
2022-12-27T17:45:34.283Z,1.70
2022-12-27T17:48:08.828Z,2.22
2022-12-27T17:50:35.564Z,2.58
2022-12-27T17:53:40.751Z,2.28
2022-12-27T17:56:28.760Z,1.90
2022-12-27T17:59:21.430Z,1.98
2022-12-27T18:01:49.415Z,2.30
2022-12-27T18:04:24.220Z,2.05
2022-12-27T18:06:55.052Z,2.10
2022-12-27T18:09:27.109Z,3.13
2022-12-27T18:11:53.436Z,1.85
2022-12-27T18:14:20.887Z,2.63
2022-12-27T18:16:47.761Z,2.50
2022-12-27T18:19:19.714Z,2.10
2022-12-27T18:21:56.260Z,2.13
2022-12-27T18:24:27.078Z,2.40
2022-12-27T18:27:04.191Z,2.50
2022-12-27T18:29:31.015Z,2.47
2022-12-27T18:32:01.178Z,2.47
2022-12-27T18:34:31.772Z,2.00
2022-12-27T18:37:02.702Z,2.42
2022-12-27T18:39:33.717Z,3.03
2022-12-27T18:42:02.308Z,3.00
2022-12-27T18:44:31.469Z,2.13
2022-12-27T18:47:00.469Z,1.85
2022-12-27T18:49:31.393Z,3.35
2022-12-27T18:51:57.974Z,2.03
2022-12-27T18:54:27.303Z,2.30
2022-12-27T18:56:54.278Z,2.17
2022-12-27T18:59:22.880Z,2.58
2022-12-27T19:01:49.408Z,1.92
2022-12-27T19:04:18.575Z,2.47
2022-12-27T19:06:45.029Z,2.40
2022-12-27T19:09:15.811Z,1.77
2022-12-27T19:11:49.265Z,2.60
2022-12-27T19:14:15.577Z,1.98
2022-12-27T19:16:48.114Z,3.33
2022-12-27T19:19:19.653Z,2.00
2022-12-27T19:21:46.032Z,1.98
2022-12-27T19:24:19.290Z,2.50
2022-12-27T19:26:45.878Z,2.38
2022-12-27T19:29:16.383Z,2.63
2022-12-27T19:31:44.258Z,2.78
2022-12-27T19:34:15.200Z,2.65
2022-12-27T19:36:43.180Z,2.20
2022-12-27T19:39:18.308Z,2.30
2022-12-27T19:41:44.671Z,2.45
2022-12-27T19:44:11.429Z,2.05
2022-12-27T19:46:37.826Z,2.78
2022-12-27T19:54:18.465Z,2.17
2022-12-27T19:56:44.929Z,2.45
2022-12-27T19:59:15.617Z,2.22
2022-12-27T20:01:42.146Z,5.57
2022-12-27T20:04:08.541Z,2.28
2022-12-27T20:06:34.949Z,2.53
2022-12-27T20:09:01.314Z,2.42
2022-12-27T20:11:27.945Z,2.50
2022-12-27T20:13:54.327Z,2.40
2022-12-27T20:16:20.853Z,2.50
2022-12-27T20:18:47.301Z,2.85
2022-12-27T20:21:17.254Z,2.50
2022-12-27T20:23:43.787Z,2.38
2022-12-27T20:26:10.627Z,2.45
2022-12-27T20:28:37.202Z,3.15
2022-12-27T20:31:07.519Z,2.45
2022-12-27T20:33:33.875Z,2.40
2022-12-27T20:36:00.292Z,2.22
2022-12-27T20:38:26.752Z,2.83
2022-12-27T20:40:53.364Z,2.33
2022-12-27T20:43:19.739Z,2.70
2022-12-27T20:45:46.394Z,2.15
2022-12-27T20:48:13.228Z,2.20
2022-12-27T20:50:40.207Z,2.60
2022-12-27T20:53:06.850Z,2.20
2022-12-27T20:55:34.339Z,2.53
2022-12-27T20:58:01.207Z,2.70
2022-12-27T21:00:27.604Z,2.22
2022-12-27T21:02:54.115Z,2.10
2022-12-27T21:05:20.663Z,2.25
2022-12-27T21:07:47.112Z,2.63
2022-12-27T21:10:13.532Z,2.38
2022-12-27T21:12:40.062Z,2.00
2022-12-27T21:15:08.312Z,2.38
2022-12-27T21:17:34.852Z,2.45
2022-12-27T21:20:01.207Z,1.92
2022-12-27T21:22:27.591Z,2.28
2022-12-27T21:24:53.973Z,2.35
2022-12-27T21:27:20.375Z,2.20
2022-12-27T21:29:46.681Z,2.33
2022-12-27T21:32:13.104Z,2.53
2022-12-27T21:34:41.214Z,2.00
2022-12-27T21:37:13.081Z,2.75
2022-12-27T21:39:40.033Z,2.42
2022-12-27T21:42:06.433Z,2.33
2022-12-27T21:44:35.267Z,2.90
2022-12-27T21:47:01.705Z,1.98
2022-12-27T21:49:28.051Z,1.98
2022-12-27T21:51:54.425Z,2.53
2022-12-27T21:54:20.777Z,2.45
2022-12-27T21:56:47.219Z,2.20
2022-12-27T21:59:13.586Z,2.55
2022-12-27T22:01:50.624Z,2.72
2022-12-27T22:04:19.281Z,1.92
2022-12-27T22:06:47.326Z,2.45
2022-12-27T22:09:14.316Z,3.05
2022-12-27T22:11:40.710Z,2.10
2022-12-27T22:14:07.087Z,1.92
2022-12-27T22:16:37.325Z,2.45
2022-12-27T22:19:13.128Z,2.30
2022-12-27T22:24:05.956Z,2.38
2022-12-27T22:26:33.705Z,2.03
2022-12-27T22:29:00.101Z,2.22
2022-12-27T22:31:35.217Z,2.20
2022-12-27T22:34:02.962Z,2.60
2022-12-27T22:36:29.880Z,2.00
2022-12-27T22:38:56.778Z,2.67
2022-12-27T22:41:28.229Z,2.28
2022-12-27T22:43:55.832Z,2.30
2022-12-27T22:46:22.310Z,2.50
2022-12-27T22:48:56.343Z,2.45
2022-12-27T22:51:23.990Z,2.17
2022-12-27T22:53:50.588Z,2.40
2022-12-27T22:56:18.375Z,2.58
2022-12-27T22:58:45.123Z,2.80
2022-12-27T23:01:15.834Z,2.65
2022-12-27T23:03:42.516Z,2.92
2022-12-27T23:06:12.133Z,2.60
2022-12-27T23:08:38.873Z,2.20
2022-12-27T23:11:07.135Z,2.67
2022-12-27T23:13:33.958Z,2.22
2022-12-27T23:16:03.524Z,2.92
2022-12-27T23:18:30.565Z,2.53
2022-12-27T23:21:21.092Z,2.20
2022-12-27T23:23:43.844Z,2.75
2022-12-27T23:26:13.198Z,2.20
2022-12-27T23:28:41.186Z,2.25
2022-12-27T23:31:08.477Z,2.55
2022-12-27T23:33:34.985Z,2.38
2022-12-27T23:36:01.380Z,2.47
2022-12-27T23:38:27.986Z,2.33
2022-12-27T23:40:58.247Z,3.30
2022-12-27T23:46:15.624Z,2.42
2022-12-27T23:48:42.543Z,2.75
2022-12-27T23:51:09.625Z,2.50
2022-12-27T23:53:36.012Z,2.67
2022-12-27T23:56:05.228Z,2.50
2022-12-27T23:58:31.629Z,2.50
